Time;durP1;ratioP1;P1;durP2;ratioP2;P2;SDS_P1;SDS_P2;PMS_P1;PMS_P2;Temp;Humidity;BMP_temperature;BMP_pressure;BME280_temperature;BME280_humidity;BME280_pressure;Samples;Min_cycle;Max_cycle;Signal;HPM_P1;HPM_P2
2021/03/09 00:01:38;;;;;;;62.63;26.30;;;5.10;99.90;;;;;;5067786;28;20196;-71
2021/03/09 00:04:06;;;;;;;64.57;26.50;;;5.10;99.90;;;;;;5056549;28;20207;-71
2021/03/09 00:06:35;;;;;;;57.13;26.67;;;5.10;99.90;;;;;;5067137;28;20199;-70
2021/03/09 00:09:03;;;;;;;61.43;27.33;;;5.10;99.90;;;;;;5067953;28;20184;-71
2021/03/09 00:11:30;;;;;;;61.07;27.03;;;5.10;99.90;;;;;;5068947;28;20242;-70
2021/03/09 00:13:58;;;;;;;69.93;28.20;;;5.00;99.90;;;;;;5067316;28;20311;-70
2021/03/09 00:16:26;;;;;;;62.37;28.03;;;5.00;99.90;;;;;;5067084;28;20192;-70
2021/03/09 00:18:54;;;;;;;70.43;28.33;;;5.00;99.90;;;;;;5069888;28;20230;-67
2021/03/09 00:21:25;;;;;;;58.97;26.80;;;5.00;99.90;;;;;;5067978;28;20214;-70
2021/03/09 00:23:53;;;;;;;64.53;27.47;;;5.00;99.90;;;;;;5069677;28;20200;-71
2021/03/09 00:26:20;;;;;;;63.93;26.37;;;4.90;99.90;;;;;;5068236;28;20223;-70
2021/03/09 00:28:48;;;;;;;67.20;27.53;;;4.90;99.90;;;;;;5068727;28;20298;-71
2021/03/09 00:31:17;;;;;;;67.80;28.73;;;4.90;99.90;;;;;;5072919;28;20219;-71
2021/03/09 00:33:45;;;;;;;62.80;28.30;;;4.90;99.90;;;;;;5071523;28;20667;-71
2021/03/09 00:36:13;;;;;;;66.63;27.93;;;4.80;99.90;;;;;;5069777;28;21040;-70
2021/03/09 00:38:40;;;;;;;67.17;28.57;;;4.80;99.90;;;;;;5071367;28;20666;-71
2021/03/09 00:41:08;;;;;;;62.40;26.80;;;4.80;99.90;;;;;;5062927;28;20291;-70
2021/03/09 00:43:35;;;;;;;67.07;27.93;;;4.80;99.90;;;;;;5074010;28;20216;-70
2021/03/09 00:46:03;;;;;;;65.57;27.03;;;4.80;99.90;;;;;;5076976;28;20867;-71
2021/03/09 00:48:36;;;;;;;54.67;26.73;;;4.80;99.90;;;;;;5070427;28;20287;-70
2021/03/09 00:51:05;;;;;;;66.33;27.53;;;4.70;99.90;;;;;;5078975;28;20220;-70
2021/03/09 00:53:32;;;;;;;60.73;26.37;;;4.70;99.90;;;;;;5076558;28;20220;-70
2021/03/09 00:56:00;;;;;;;61.23;27.27;;;4.70;99.90;;;;;;5069451;28;20591;-70
2021/03/09 00:58:28;;;;;;;67.60;29.17;;;4.70;99.90;;;;;;5075720;28;20202;-70
2021/03/09 01:00:55;;;;;;;68.80;28.37;;;4.70;99.90;;;;;;5070580;28;20224;-70
2021/03/09 01:03:23;;;;;;;68.57;27.30;;;4.60;99.90;;;;;;5071650;28;20290;-68
2021/03/09 01:05:51;;;;;;;69.03;27.53;;;4.60;99.90;;;;;;5072705;28;20200;-70
2021/03/09 01:08:19;;;;;;;63.50;27.40;;;4.70;99.90;;;;;;5078140;28;20211;-70
2021/03/09 01:10:46;;;;;;;61.23;26.80;;;4.60;99.90;;;;;;5079491;28;20184;-70
2021/03/09 01:13:14;;;;;;;61.43;26.10;;;4.60;99.90;;;;;;5069787;28;20216;-70
2021/03/09 01:15:41;;;;;;;60.93;26.53;;;4.60;99.90;;;;;;5064649;28;20283;-71
2021/03/09 01:18:18;;;;;;;61.20;27.73;;;4.60;99.90;;;;;;5073805;28;20199;-70
2021/03/09 01:20:48;;;;;;;59.97;26.43;;;4.60;99.90;;;;;;5070553;28;20651;-67
2021/03/09 01:23:15;;;;;;;67.50;27.07;;;4.60;99.90;;;;;;5073970;28;20251;-70
2021/03/09 01:25:47;;;;;;;63.07;27.20;;;4.60;99.90;;;;;;5071391;28;20554;-70
2021/03/09 01:28:14;;;;;;;63.90;27.43;;;4.60;99.90;;;;;;5067529;28;20287;-71
2021/03/09 01:30:42;;;;;;;61.70;27.37;;;4.60;99.90;;;;;;5073786;28;20192;-71
2021/03/09 01:33:09;;;;;;;60.97;26.23;;;4.60;99.90;;;;;;5071311;28;20192;-70
2021/03/09 01:35:37;;;;;;;67.77;28.13;;;4.60;99.90;;;;;;5066939;28;20265;-71
2021/03/09 01:38:04;;;;;;;72.37;29.07;;;4.50;99.90;;;;;;5075128;28;20620;-71
2021/03/09 01:40:32;;;;;;;73.00;29.17;;;4.50;99.90;;;;;;5073552;28;20200;-70
2021/03/09 01:43:01;;;;;;;71.53;29.47;;;4.50;99.90;;;;;;5067566;28;20192;-70
2021/03/09 01:45:31;;;;;;;68.73;29.80;;;4.50;99.90;;;;;;5069174;28;20218;-71
2021/03/09 01:48:02;;;;;;;69.00;28.60;;;4.50;99.90;;;;;;5070191;28;20220;-70
2021/03/09 01:50:33;;;;;;;71.77;28.93;;;4.50;99.90;;;;;;5067630;28;20858;-68
2021/03/09 01:53:04;;;;;;;67.97;28.17;;;4.50;99.90;;;;;;5062735;28;20203;-70
2021/03/09 01:55:32;;;;;;;70.67;28.73;;;4.50;99.90;;;;;;5070210;28;20291;-69
2021/03/09 01:58:01;;;;;;;66.10;28.23;;;4.50;99.90;;;;;;5066556;28;20674;-70
2021/03/09 02:00:28;;;;;;;69.23;28.70;;;4.40;99.90;;;;;;5069749;28;20287;-71
2021/03/09 02:02:59;;;;;;;65.80;26.87;;;4.40;99.90;;;;;;5070459;28;20216;-70
2021/03/09 02:05:26;;;;;;;65.47;27.83;;;4.40;99.90;;;;;;5064005;28;20299;-70
2021/03/09 02:07:54;;;;;;;66.47;26.30;;;4.40;99.90;;;;;;5069425;28;20245;-71
2021/03/09 02:10:24;;;;;;;62.27;27.07;;;4.40;99.90;;;;;;5076217;28;20661;-70
2021/03/09 02:13:06;;;;;;;62.90;27.20;;;4.40;99.90;;;;;;5068664;28;20287;-71
2021/03/09 02:15:37;;;;;;;60.73;25.23;;;4.40;99.90;;;;;;5068328;28;20219;-70
2021/03/09 02:18:15;;;;;;;58.73;26.07;;;4.30;99.90;;;;;;5070211;28;20249;-70
2021/03/09 02:21:13;;;;;;;62.30;25.53;;;4.30;99.90;;;;;;5063648;28;20357;-70
2021/03/09 02:24:04;;;;;;;55.03;24.00;;;4.30;99.90;;;;;;5068355;28;20836;-70
2021/03/09 02:27:07;;;;;;;55.83;22.57;;;4.30;99.90;;;;;;5061824;28;20583;-71
2021/03/09 02:30:02;;;;;;;51.27;22.43;;;4.30;99.90;;;;;;5071062;28;20223;-70
2021/03/09 02:32:34;;;;;;;53.93;22.70;;;4.30;99.90;;;;;;5068495;28;20195;-69
2021/03/09 02:35:04;;;;;;;57.90;23.00;;;4.30;99.90;;;;;;5068603;28;20188;-70
2021/03/09 02:37:35;;;;;;;54.27;23.27;;;4.30;99.90;;;;;;5067739;28;20256;-71
2021/03/09 02:40:06;;;;;;;53.47;23.37;;;4.20;99.90;;;;;;5080376;28;20249;-70
2021/03/09 02:42:38;;;;;;;52.30;22.10;;;4.20;99.90;;;;;;5068790;28;20205;-70
2021/03/09 02:45:12;;;;;;;47.00;20.93;;;4.30;99.90;;;;;;5063185;28;20299;-67
2021/03/09 02:47:40;;;;;;;46.87;20.67;;;4.30;99.90;;;;;;5071143;28;20222;-70
2021/03/09 02:50:10;;;;;;;56.60;22.30;;;4.30;99.90;;;;;;5068785;28;20192;-70
2021/03/09 02:52:39;;;;;;;47.70;22.37;;;4.30;99.90;;;;;;5067629;28;20192;-70
2021/03/09 02:55:10;;;;;;;43.13;20.93;;;4.30;99.90;;;;;;5067667;28;20306;-70
2021/03/09 02:57:39;;;;;;;46.17;21.37;;;4.30;99.90;;;;;;5067859;28;20192;-70
2021/03/09 03:00:09;;;;;;;46.37;20.50;;;4.30;99.90;;;;;;5069526;28;20234;-70
2021/03/09 03:02:38;;;;;;;46.57;20.70;;;4.30;99.90;;;;;;5068787;28;20243;-70
2021/03/09 03:05:10;;;;;;;45.77;21.07;;;4.40;99.90;;;;;;5067781;28;20219;-70
2021/03/09 03:07:39;;;;;;;49.97;20.97;;;4.40;99.90;;;;;;5068290;28;20271;-70
2021/03/09 03:10:12;;;;;;;46.53;20.00;;;4.30;99.90;;;;;;5069198;28;20192;-70
2021/03/09 03:12:41;;;;;;;45.00;20.83;;;4.40;99.90;;;;;;5067472;28;20245;-70
2021/03/09 03:15:12;;;;;;;49.20;21.37;;;4.40;99.90;;;;;;5072564;28;20614;-70
2021/03/09 03:17:44;;;;;;;46.57;19.20;;;4.30;99.90;;;;;;5069958;28;20200;-71
2021/03/09 03:20:15;;;;;;;45.47;19.13;;;4.30;99.90;;;;;;5068531;28;20210;-70
2021/03/09 03:22:44;;;;;;;47.83;20.13;;;4.40;99.90;;;;;;5069145;28;20278;-70
2021/03/09 03:25:14;;;;;;;43.90;18.43;;;4.30;99.90;;;;;;5068178;28;20200;-70
2021/03/09 03:27:43;;;;;;;43.93;18.70;;;4.30;99.90;;;;;;5067883;28;20188;-70
2021/03/09 03:30:14;;;;;;;41.83;18.10;;;4.30;99.90;;;;;;5068942;28;20195;-70
2021/03/09 03:32:42;;;;;;;49.97;19.87;;;4.30;99.90;;;;;;5068909;28;20199;-70
2021/03/09 03:35:13;;;;;;;40.17;18.70;;;4.30;99.90;;;;;;5067283;28;20241;-70
2021/03/09 03:37:41;;;;;;;44.93;19.33;;;4.30;99.90;;;;;;5074260;28;20733;-70
2021/03/09 03:40:10;;;;;;;45.70;19.57;;;4.30;99.90;;;;;;5068400;28;20291;-70
2021/03/09 03:42:38;;;;;;;44.40;19.30;;;4.40;99.90;;;;;;5062132;28;20281;-70
2021/03/09 03:45:07;;;;;;;42.00;18.83;;;4.30;99.90;;;;;;5067862;28;20685;-70
2021/03/09 03:47:36;;;;;;;46.53;19.80;;;4.30;99.90;;;;;;5068160;28;20283;-70
2021/03/09 03:50:14;;;;;;;45.63;19.80;;;4.30;99.90;;;;;;5066178;28;20184;-70
2021/03/09 03:52:50;;;;;;;45.93;20.33;;;4.30;99.90;;;;;;5068902;28;20238;-70
2021/03/09 03:55:29;;;;;;;42.00;18.93;;;4.40;99.90;;;;;;5068454;28;20184;-70
2021/03/09 03:58:04;;;;;;;44.10;20.40;;;4.40;99.90;;;;;;5064531;28;20207;-71
2021/03/09 04:00:34;;;;;;;43.77;20.17;;;4.30;99.90;;;;;;5063624;28;20292;-70
2021/03/09 04:03:03;;;;;;;44.93;18.80;;;4.30;99.90;;;;;;5068129;28;20223;-69
2021/03/09 04:05:30;;;;;;;40.80;19.37;;;4.30;99.90;;;;;;5052391;28;20266;-70
2021/03/09 04:07:58;;;;;;;51.80;19.87;;;4.30;99.90;;;;;;5069213;28;20203;-71
2021/03/09 04:10:26;;;;;;;49.60;20.13;;;4.40;99.90;;;;;;5072883;28;20188;-70
2021/03/09 04:12:54;;;;;;;51.07;19.37;;;4.40;99.90;;;;;;5072221;28;20251;-71
2021/03/09 04:15:24;;;;;;;43.23;19.10;;;4.40;99.90;;;;;;5091335;28;20314;-70
2021/03/09 04:17:52;;;;;;;47.07;19.57;;;4.40;99.90;;;;;;5072500;28;20196;-70
2021/03/09 04:20:42;;;;;;;44.00;19.47;;;4.40;99.90;;;;;;5072813;28;20204;-71
2021/03/09 04:23:14;;;;;;;45.33;18.47;;;4.40;99.90;;;;;;5071131;28;20283;-70
2021/03/09 04:25:43;;;;;;;39.23;18.53;;;4.40;99.90;;;;;;5072502;28;20215;-70
2021/03/09 04:28:11;;;;;;;42.20;18.33;;;4.40;99.90;;;;;;5071657;28;20223;-68
2021/03/09 04:30:45;;;;;;;44.23;18.97;;;4.40;99.90;;;;;;5071356;28;20200;-70
2021/03/09 04:33:13;;;;;;;43.93;18.50;;;4.40;99.90;;;;;;5076498;28;20677;-69
2021/03/09 04:35:41;;;;;;;40.63;18.30;;;4.40;99.90;;;;;;5072200;28;20291;-71
2021/03/09 04:38:09;;;;;;;39.80;17.83;;;4.40;99.90;;;;;;5072046;28;20283;-70
2021/03/09 04:40:38;;;;;;;46.93;20.27;;;4.40;99.90;;;;;;5071437;28;20811;-70
2021/03/09 04:43:05;;;;;;;43.63;17.83;;;4.40;99.90;;;;;;5071667;28;20258;-71
2021/03/09 04:45:33;;;;;;;47.77;18.67;;;4.30;99.90;;;;;;5067421;28;20216;-70
2021/03/09 04:48:01;;;;;;;44.17;18.90;;;4.30;99.90;;;;;;5075752;28;20646;-69
2021/03/09 04:50:30;;;;;;;48.00;18.87;;;4.30;99.90;;;;;;5070536;28;20257;-70
2021/03/09 04:52:58;;;;;;;43.07;18.87;;;4.30;99.90;;;;;;5070876;28;20610;-71
2021/03/09 04:55:26;;;;;;;45.23;18.77;;;4.30;99.90;;;;;;5075434;28;20278;-71
2021/03/09 04:57:54;;;;;;;43.43;19.60;;;4.30;99.90;;;;;;5074044;28;20663;-71
2021/03/09 05:00:23;;;;;;;38.57;18.53;;;4.30;99.90;;;;;;5070561;28;20349;-71
2021/03/09 05:02:52;;;;;;;43.30;19.87;;;4.30;99.90;;;;;;5069928;28;20232;-70
2021/03/09 05:05:21;;;;;;;45.77;19.63;;;4.20;99.90;;;;;;5071951;28;20700;-70
2021/03/09 05:07:50;;;;;;;42.83;19.03;;;4.20;99.90;;;;;;5071087;28;20242;-70
2021/03/09 05:10:18;;;;;;;52.13;21.80;;;4.20;99.90;;;;;;5070130;28;20619;-70
2021/03/09 05:12:47;;;;;;;49.40;22.03;;;4.20;99.90;;;;;;5072018;28;20658;-70
2021/03/09 05:15:14;;;;;;;47.73;21.30;;;4.20;99.90;;;;;;5073289;28;20239;-71
2021/03/09 05:17:42;;;;;;;47.40;20.60;;;4.20;99.90;;;;;;5070058;28;20208;-69
2021/03/09 05:20:12;;;;;;;49.60;20.67;;;4.20;99.90;;;;;;5070024;28;20304;-70
2021/03/09 05:22:40;;;;;;;51.60;21.20;;;4.20;99.90;;;;;;5074508;28;20203;-71
2021/03/09 05:25:11;;;;;;;53.10;21.67;;;4.20;99.90;;;;;;5070074;28;20211;-71
2021/03/09 05:27:42;;;;;;;51.67;20.97;;;4.20;99.90;;;;;;5086538;28;20283;-70
2021/03/09 05:30:11;;;;;;;49.47;21.93;;;4.20;99.90;;;;;;5072884;28;20245;-70
2021/03/09 05:32:42;;;;;;;51.90;21.20;;;4.20;99.90;;;;;;5072085;28;20191;-68
2021/03/09 05:35:12;;;;;;;49.13;22.33;;;4.20;99.90;;;;;;5066361;28;20675;-70
2021/03/09 05:37:40;;;;;;;52.57;22.37;;;4.20;99.90;;;;;;5069410;28;20220;-70
2021/03/09 05:40:08;;;;;;;51.43;23.20;;;4.20;99.90;;;;;;5067664;28;20209;-71
2021/03/09 05:42:37;;;;;;;54.97;22.47;;;4.30;99.90;;;;;;5072183;28;20228;-70
2021/03/09 05:45:07;;;;;;;50.20;22.97;;;4.20;99.90;;;;;;5070178;28;20202;-69
2021/03/09 05:47:36;;;;;;;54.10;23.27;;;4.30;99.90;;;;;;5065919;28;20192;-70
2021/03/09 05:50:05;;;;;;;49.87;23.07;;;4.30;99.90;;;;;;5067017;28;20216;-70
2021/03/09 05:52:35;;;;;;;48.63;22.50;;;4.30;99.90;;;;;;5068315;28;20246;-71
2021/03/09 05:55:06;;;;;;;52.73;23.37;;;4.30;99.90;;;;;;5072299;28;20691;-71
2021/03/09 05:57:34;;;;;;;51.73;23.87;;;4.30;99.90;;;;;;5069240;28;20279;-69
2021/03/09 06:00:02;;;;;;;49.40;23.23;;;4.30;99.90;;;;;;5070331;28;20230;-71
2021/03/09 06:02:34;;;;;;;53.87;23.40;;;4.40;99.90;;;;;;5067400;28;20228;-68
2021/03/09 06:05:03;;;;;;;57.63;23.97;;;4.40;99.90;;;;;;5071635;28;20216;-70
2021/03/09 06:07:30;;;;;;;57.00;23.97;;;4.40;99.90;;;;;;5067811;28;20253;-71
2021/03/09 06:10:01;;;;;;;53.77;23.97;;;4.40;99.90;;;;;;5072021;28;20706;-69
2021/03/09 06:12:31;;;;;;;53.07;23.17;;;4.40;99.90;;;;;;5066447;28;20286;-71
2021/03/09 06:15:04;;;;;;;52.63;23.83;;;4.40;99.90;;;;;;5067079;28;20293;-69
2021/03/09 06:17:37;;;;;;;50.43;23.83;;;4.40;99.90;;;;;;5064443;28;20621;-70
2021/03/09 06:20:27;;;;;;;54.73;24.20;;;4.40;99.90;;;;;;5072199;28;20694;-70
2021/03/09 06:22:56;;;;;;;52.67;23.63;;;4.50;99.90;;;;;;5075255;28;20192;-71
2021/03/09 06:25:25;;;;;;;53.57;24.13;;;4.40;99.90;;;;;;5074974;28;20299;-71
2021/03/09 06:27:53;;;;;;;53.73;24.50;;;4.50;99.90;;;;;;5072990;28;20290;-70
2021/03/09 06:30:30;;;;;;;60.90;26.83;;;4.50;99.90;;;;;;5061334;28;20251;-71
2021/03/09 06:32:59;;;;;;;60.87;25.33;;;4.40;99.90;;;;;;5063985;28;20288;-71
2021/03/09 06:35:30;;;;;;;57.70;25.23;;;4.50;99.90;;;;;;5065654;28;20196;-70
2021/03/09 06:38:19;;;;;;;55.77;26.00;;;4.50;99.90;;;;;;5068992;28;20196;-71
2021/03/09 06:41:06;;;;;;;58.97;25.90;;;4.50;99.90;;;;;;5070021;28;20192;-71
2021/03/09 06:43:34;;;;;;;61.70;25.60;;;4.50;99.90;;;;;;5063311;28;20215;-71
2021/03/09 06:46:16;;;;;;;59.23;25.73;;;4.60;99.90;;;;;;5067437;28;20243;-69
2021/03/09 06:48:46;;;;;;;60.67;27.03;;;4.60;99.90;;;;;;5068878;28;20250;-71
2021/03/09 06:51:27;;;;;;;56.83;27.23;;;4.70;99.90;;;;;;5063329;28;20215;-70
2021/03/09 06:54:05;;;;;;;67.20;29.43;;;4.70;99.90;;;;;;5068758;28;20275;-71
2021/03/09 06:56:33;;;;;;;64.37;27.90;;;4.80;99.90;;;;;;5070380;28;20688;-70
2021/03/09 06:59:18;;;;;;;62.97;27.73;;;4.80;99.90;;;;;;5066807;28;20210;-71
2021/03/09 07:02:03;;;;;;;65.57;28.27;;;4.90;99.90;;;;;;5068424;28;20234;-70
2021/03/09 07:04:32;;;;;;;63.83;28.47;;;4.90;99.90;;;;;;5067992;28;20188;-71
2021/03/09 07:06:59;;;;;;;69.00;28.70;;;5.00;99.90;;;;;;5075824;28;20224;-71
2021/03/09 07:09:27;;;;;;;66.17;27.33;;;5.00;99.90;;;;;;5087552;28;20229;-70
2021/03/09 07:11:55;;;;;;;65.83;28.03;;;5.00;99.90;;;;;;5087478;28;20547;-71
2021/03/09 07:14:24;;;;;;;74.23;30.73;;;5.10;99.90;;;;;;5080078;28;20280;-71
2021/03/09 07:16:53;;;;;;;64.30;29.37;;;5.10;99.90;;;;;;5069237;28;20226;-71
2021/03/09 07:19:25;;;;;;;67.73;29.63;;;5.20;99.90;;;;;;5070524;28;20192;-71
2021/03/09 07:21:54;;;;;;;66.60;28.87;;;5.20;99.90;;;;;;5080723;28;20658;-71
2021/03/09 07:24:25;;;;;;;66.73;29.10;;;5.20;99.90;;;;;;5070982;28;20570;-71
2021/03/09 07:26:58;;;;;;;62.73;28.37;;;5.30;99.90;;;;;;5081230;28;20283;-71
2021/03/09 07:29:28;;;;;;;66.43;28.40;;;5.30;99.90;;;;;;5070116;28;20253;-71
2021/03/09 07:31:56;;;;;;;67.53;30.10;;;5.40;99.90;;;;;;5069948;28;20742;-71
2021/03/09 07:34:25;;;;;;;72.23;30.27;;;5.50;99.90;;;;;;5066917;28;20257;-71
2021/03/09 07:36:55;;;;;;;70.67;31.17;;;5.50;99.90;;;;;;5067613;28;20202;-70
2021/03/09 07:39:25;;;;;;;65.03;30.23;;;5.40;99.90;;;;;;5061811;28;20192;-68
2021/03/09 07:41:53;;;;;;;66.83;30.03;;;5.50;99.90;;;;;;5063793;28;20220;-71
2021/03/09 07:44:21;;;;;;;69.30;29.57;;;5.40;99.90;;;;;;5057566;28;20527;-71
2021/03/09 07:46:49;;;;;;;64.97;30.10;;;5.40;99.90;;;;;;5066593;28;20211;-71
2021/03/09 07:49:18;;;;;;;65.57;30.00;;;5.40;99.90;;;;;;5068677;28;20249;-71
2021/03/09 07:52:11;;;;;;;68.50;29.60;;;5.40;99.90;;;;;;5070446;28;20643;-71
2021/03/09 07:54:40;;;;;;;65.20;29.37;;;5.50;99.90;;;;;;5071244;28;20199;-70
2021/03/09 07:57:21;;;;;;;66.97;29.43;;;5.50;99.90;;;;;;5073778;28;20250;-70
2021/03/09 07:59:58;;;;;;;59.73;29.77;;;5.60;99.90;;;;;;5078282;28;20188;-71
2021/03/09 08:02:45;;;;;;;66.27;30.80;;;5.60;99.90;;;;;;5076011;28;20676;-71
2021/03/09 08:05:14;;;;;;;71.40;30.93;;;5.70;99.90;;;;;;5071744;28;20244;-71
2021/03/09 08:07:58;;;;;;;67.17;29.90;;;5.70;99.90;;;;;;5066405;28;20227;-71
2021/03/09 08:10:47;;;;;;;65.60;30.40;;;5.70;99.90;;;;;;5067457;28;20608;-70
2021/03/09 08:13:27;;;;;;;62.00;30.10;;;5.80;99.90;;;;;;5066991;28;20283;-71
2021/03/09 08:16:31;;;;;;;67.53;31.07;;;5.80;99.90;;;;;;5078617;28;20241;-71
2021/03/09 08:19:00;;;;;;;70.27;31.50;;;5.80;99.90;;;;;;5067048;28;20206;-71
2021/03/09 08:21:55;;;;;;;66.07;30.97;;;5.70;99.90;;;;;;5068493;28;20773;-66
2021/03/09 08:24:52;;;;;;;66.03;30.20;;;5.70;99.90;;;;;;5064691;28;20258;-71
2021/03/09 08:27:36;;;;;;;68.17;30.73;;;5.80;99.90;;;;;;5067793;28;20184;-71
2021/03/09 08:30:29;;;;;;;67.30;29.37;;;5.90;99.90;;;;;;5068795;28;20283;-71
2021/03/09 08:33:31;;;;;;;68.83;29.47;;;5.90;99.90;;;;;;5069935;28;20738;-69
2021/03/09 08:36:00;;;;;;;67.33;30.03;;;6.00;99.90;;;;;;5067219;28;20203;-70
2021/03/09 08:38:28;;;;;;;63.53;30.13;;;6.00;99.90;;;;;;5066201;28;20219;-69
2021/03/09 08:41:11;;;;;;;64.07;29.30;;;6.00;99.90;;;;;;5072052;28;20192;-69
2021/03/09 08:43:40;;;;;;;68.60;30.10;;;6.00;99.90;;;;;;5068121;28;20227;-69
2021/03/09 08:46:17;;;;;;;66.13;30.50;;;6.10;99.90;;;;;;5070116;28;20216;-70
2021/03/09 08:48:57;;;;;;;67.77;31.07;;;6.10;99.90;;;;;;5075350;28;20196;-70
2021/03/09 08:51:49;;;;;;;66.77;31.33;;;6.10;99.90;;;;;;5067577;28;20184;-70
2021/03/09 08:54:37;;;;;;;64.30;29.90;;;6.20;99.90;;;;;;5060812;28;20786;-70
2021/03/09 08:57:12;;;;;;;68.93;30.93;;;6.30;99.90;;;;;;5071443;28;20270;-69
2021/03/09 08:59:42;;;;;;;60.07;29.97;;;6.40;99.90;;;;;;5070193;28;20222;-70
2021/03/09 09:02:14;;;;;;;66.70;29.13;;;6.60;99.90;;;;;;5067745;28;20219;-68
2021/03/09 09:04:44;;;;;;;56.43;28.33;;;6.70;99.90;;;;;;5070550;28;20724;-71
2021/03/09 09:07:23;;;;;;;59.50;29.13;;;6.90;99.90;;;;;;5070219;28;20215;-71
2021/03/09 09:09:52;;;;;;;62.27;29.07;;;7.10;99.90;;;;;;5066394;28;20191;-70
2021/03/09 09:12:28;;;;;;;51.43;27.20;;;7.30;99.90;;;;;;5069777;28;20196;-69
2021/03/09 09:15:11;;;;;;;52.17;27.30;;;7.40;99.90;;;;;;5069038;28;20232;-71
2021/03/09 09:17:40;;;;;;;50.93;26.47;;;7.50;99.90;;;;;;5066248;28;20230;-70
2021/03/09 09:20:11;;;;;;;57.40;27.27;;;7.60;99.90;;;;;;5079421;28;20223;-70
2021/03/09 09:22:39;;;;;;;47.23;25.03;;;7.70;99.90;;;;;;5075641;28;20283;-70
2021/03/09 09:25:08;;;;;;;49.17;24.90;;;7.90;99.90;;;;;;5066266;28;20212;-68
2021/03/09 09:27:46;;;;;;;46.00;24.97;;;8.10;99.90;;;;;;5078390;28;20570;-71
2021/03/09 09:30:17;;;;;;;41.97;21.87;;;8.50;99.90;;;;;;5074353;28;20279;-70
2021/03/09 09:32:52;;;;;;;42.47;23.13;;;8.80;99.90;;;;;;5071208;28;20753;-70
2021/03/09 09:35:22;;;;;;;44.57;23.47;;;8.70;99.90;;;;;;5067123;28;20184;-66
2021/03/09 09:37:53;;;;;;;42.00;23.13;;;8.60;99.90;;;;;;5071908;28;20286;-70
2021/03/09 09:40:23;;;;;;;46.33;24.03;;;8.50;99.90;;;;;;5071480;28;20268;-69
2021/03/09 09:43:03;;;;;;;40.40;21.87;;;8.50;99.90;;;;;;5076803;28;20200;-71
2021/03/09 09:45:32;;;;;;;40.40;23.30;;;8.40;99.90;;;;;;5070851;28;20214;-70
2021/03/09 09:48:01;;;;;;;39.13;23.23;;;8.70;99.90;;;;;;5069775;28;20643;-71
2021/03/09 09:50:28;;;;;;;36.03;21.10;;;9.50;99.90;;;;;;5069869;28;20207;-71
2021/03/09 09:52:59;;;;;;;33.70;20.60;;;10.60;99.90;;;;;;5068168;28;20203;-71
2021/03/09 09:55:28;;;;;;;33.53;21.27;;;11.10;99.90;;;;;;5068977;28;20184;-71
2021/03/09 09:58:00;;;;;;;36.13;20.90;;;11.10;99.90;;;;;;5082105;28;20199;-71
2021/03/09 10:00:30;;;;;;;33.13;20.47;;;10.80;99.90;;;;;;5063618;28;20206;-71
2021/03/09 10:03:16;;;;;;;36.07;20.67;;;10.50;99.90;;;;;;5072861;28;20658;-70
2021/03/09 10:05:45;;;;;;;36.33;21.73;;;10.00;99.90;;;;;;5066022;28;20289;-70
2021/03/09 10:08:32;;;;;;;39.70;22.33;;;9.60;99.90;;;;;;5069869;28;20220;-70
2021/03/09 10:11:01;;;;;;;36.13;22.63;;;9.20;99.90;;;;;;5068980;28;20200;-70
2021/03/09 10:13:29;;;;;;;41.77;23.53;;;9.00;99.90;;;;;;5069870;28;20195;-70
2021/03/09 10:15:58;;;;;;;39.60;22.60;;;8.80;99.90;;;;;;5070288;28;20197;-70
2021/03/09 10:18:31;;;;;;;37.20;22.83;;;8.70;99.90;;;;;;5067801;28;20214;-70
2021/03/09 10:21:07;;;;;;;41.50;22.60;;;8.80;99.90;;;;;;5070075;28;20200;-70
2021/03/09 10:23:51;;;;;;;39.43;22.90;;;8.80;99.90;;;;;;5090440;28;20684;-70
2021/03/09 10:26:30;;;;;;;40.03;23.57;;;8.80;99.90;;;;;;5070022;28;20607;-70
2021/03/09 10:29:16;;;;;;;37.53;22.73;;;8.70;99.90;;;;;;5075470;28;20196;-70
2021/03/09 10:31:45;;;;;;;34.23;20.47;;;8.70;99.90;;;;;;5076608;28;20231;-70
2021/03/09 10:34:13;;;;;;;38.73;21.27;;;8.80;99.90;;;;;;5070723;28;20208;-71
2021/03/09 10:36:59;;;;;;;37.77;22.57;;;9.00;99.90;;;;;;5067120;28;20751;-71
2021/03/09 10:39:28;;;;;;;34.63;21.43;;;9.00;99.90;;;;;;5065410;28;20690;-69
2021/03/09 10:41:56;;;;;;;35.20;21.83;;;8.90;99.90;;;;;;5069036;28;20196;-71
2021/03/09 10:44:31;;;;;;;35.57;21.20;;;9.10;99.90;;;;;;5069604;28;20212;-68
2021/03/09 10:47:00;;;;;;;32.03;19.93;;;9.70;99.90;;;;;;5068912;28;20638;-71
2021/03/09 10:49:28;;;;;;;29.00;19.70;;;10.30;99.90;;;;;;5066753;28;20239;-70
2021/03/09 10:52:00;;;;;;;33.43;19.43;;;10.50;99.90;;;;;;5070770;28;20196;-71
2021/03/09 10:54:28;;;;;;;30.60;19.93;;;10.50;99.90;;;;;;5078782;28;20265;-67
2021/03/09 10:56:56;;;;;;;32.80;18.97;;;10.10;99.90;;;;;;5069535;28;20196;-71
2021/03/09 10:59:24;;;;;;;30.70;20.03;;;9.60;99.90;;;;;;5065333;28;20240;-64
2021/03/09 11:01:52;;;;;;;36.43;20.83;;;9.30;99.90;;;;;;5067585;28;20199;-70
2021/03/09 11:04:20;;;;;;;34.10;20.80;;;9.10;99.90;;;;;;5070269;28;20204;-70
2021/03/09 11:06:47;;;;;;;33.37;19.93;;;8.80;99.90;;;;;;5072322;28;20640;-70
2021/03/09 11:09:15;;;;;;;30.50;19.40;;;8.70;99.90;;;;;;5067819;28;20196;-70
2021/03/09 11:11:42;;;;;;;34.30;20.07;;;8.60;99.90;;;;;;5069135;28;20282;-70
2021/03/09 11:14:11;;;;;;;29.43;19.93;;;8.50;99.90;;;;;;5068273;28;20230;-70
2021/03/09 11:16:38;;;;;;;34.80;20.27;;;8.40;99.90;;;;;;5074371;28;20281;-69
2021/03/09 11:19:07;;;;;;;34.07;20.30;;;8.40;99.90;;;;;;5069601;28;20597;-70
2021/03/09 11:21:34;;;;;;;34.30;21.37;;;8.20;99.90;;;;;;5069561;28;20192;-69
2021/03/09 11:24:02;;;;;;;36.50;21.97;;;8.10;99.90;;;;;;5068409;28;20618;-69
2021/03/09 11:26:30;;;;;;;37.70;22.13;;;8.00;99.90;;;;;;5072229;28;20286;-70
2021/03/09 11:28:58;;;;;;;36.07;21.57;;;7.90;99.90;;;;;;5073429;28;20212;-69
2021/03/09 11:31:26;;;;;;;40.53;22.50;;;7.90;99.90;;;;;;5064170;28;20188;-69
2021/03/09 11:33:54;;;;;;;38.53;22.83;;;7.90;99.90;;;;;;5063567;28;20192;-70
2021/03/09 11:36:23;;;;;;;39.63;23.23;;;7.90;99.90;;;;;;5068938;28;20211;-70
2021/03/09 11:38:50;;;;;;;38.30;22.10;;;7.90;99.90;;;;;;5060958;28;20949;-68
2021/03/09 11:41:19;;;;;;;39.47;23.53;;;7.90;99.90;;;;;;5065227;28;20291;-70
2021/03/09 11:43:48;;;;;;;38.93;22.33;;;7.90;99.90;;;;;;5065933;28;20192;-70
2021/03/09 11:46:16;;;;;;;40.77;22.67;;;7.90;99.90;;;;;;5059670;28;20308;-71
2021/03/09 11:48:44;;;;;;;41.80;22.27;;;7.90;99.90;;;;;;5065894;28;20203;-70
2021/03/09 11:51:13;;;;;;;37.40;23.10;;;7.90;99.90;;;;;;5062532;28;20196;-72
2021/03/09 11:53:42;;;;;;;37.23;23.10;;;7.90;99.90;;;;;;5066766;28;20220;-70
2021/03/09 11:56:09;;;;;;;42.40;23.93;;;7.90;99.90;;;;;;5065714;28;20194;-70
2021/03/09 11:58:37;;;;;;;44.73;24.00;;;7.90;99.90;;;;;;5068553;28;20218;-68
2021/03/09 12:01:05;;;;;;;42.03;24.60;;;7.90;99.90;;;;;;5069097;28;20198;-66
2021/03/09 12:03:33;;;;;;;46.27;25.03;;;8.00;99.90;;;;;;5065284;28;20207;-70
2021/03/09 12:06:00;;;;;;;39.97;24.03;;;8.00;99.90;;;;;;5077014;28;20250;-70
2021/03/09 12:08:28;;;;;;;43.87;24.60;;;7.90;99.90;;;;;;5068619;28;20726;-70
2021/03/09 12:10:56;;;;;;;41.83;25.70;;;7.90;99.90;;;;;;5067016;28;20196;-69
2021/03/09 12:13:24;;;;;;;51.10;27.67;;;7.80;99.90;;;;;;5071675;28;20187;-70
2021/03/09 12:15:54;;;;;;;44.87;26.83;;;7.80;99.90;;;;;;5065801;28;20223;-68
2021/03/09 12:18:22;;;;;;;44.07;25.60;;;7.80;99.90;;;;;;5065499;28;20184;-69
2021/03/09 12:20:50;;;;;;;46.23;24.87;;;7.80;99.90;;;;;;5068756;28;20287;-70
2021/03/09 12:23:27;;;;;;;45.73;26.07;;;7.80;99.90;;;;;;5067505;28;20198;-70
2021/03/09 12:26:11;;;;;;;40.90;25.10;;;7.90;99.90;;;;;;5067286;28;20310;-69
2021/03/09 12:28:39;;;;;;;44.17;27.20;;;8.00;99.90;;;;;;5076778;28;20224;-70
2021/03/09 12:31:06;;;;;;;44.03;26.33;;;8.10;99.90;;;;;;5081025;28;20216;-70
2021/03/09 12:33:34;;;;;;;44.97;26.47;;;8.30;99.90;;;;;;5072270;28;20188;-70
2021/03/09 12:36:02;;;;;;;39.70;25.03;;;8.50;99.90;;;;;;5076532;28;20184;-70
2021/03/09 12:38:30;;;;;;;41.03;24.10;;;8.70;99.90;;;;;;5074938;28;20219;-70
2021/03/09 12:40:57;;;;;;;39.57;25.07;;;8.70;99.90;;;;;;5070835;28;20344;-69
2021/03/09 12:43:26;;;;;;;43.63;24.27;;;8.80;99.90;;;;;;5070998;28;20184;-70
2021/03/09 12:45:53;;;;;;;47.33;25.10;;;8.80;99.90;;;;;;5075587;28;20254;-70
2021/03/09 12:48:21;;;;;;;44.93;23.40;;;8.80;99.90;;;;;;5071154;28;20286;-69
2021/03/09 12:50:49;;;;;;;40.27;24.73;;;8.70;99.90;;;;;;5071970;28;20196;-70
2021/03/09 12:53:18;;;;;;;44.37;25.27;;;8.50;99.90;;;;;;5072509;28;20282;-70
2021/03/09 12:55:47;;;;;;;43.67;24.20;;;8.40;99.90;;;;;;5073638;28;20207;-69
2021/03/09 12:58:15;;;;;;;45.70;25.80;;;8.30;99.90;;;;;;5078724;28;20253;-70